DTTZ/TOE METAR and TAF weather

Enter ICAO airport designator
Station Type Date Time Source
DTTZ METAR 2022/01/26 14:00 UTC NOAA

DTTZ 261400Z 25004KT 210V340 CAVOK 16/03 Q1030


Station Type Date Time Source
DTTZ Decoded METAR 2022/01/26 14:00 UTC NOAA

Tozeur, Tunisia (DTTZ) 33-55N 008-06E 93M
Jan 26, 2022 - 09:00 AM EST / 2022.01.26 1400 UTC
Wind: from the WSW (250 degrees) at 5 MPH (4 KT) (direction variable):0
Visibility: greater than 7 mile(s):0
Temperature: 60 F (16 C)
Dew Point: 37 F (3 C)
Relative Humidity: 41%
Pressure (altimeter): 30.42 in. Hg (1030 hPa)
ob: DTTZ 261400Z 25004KT 210V340 CAVOK 16/03 Q1030
cycle: 14

Station Type Date Time Source
DTTZ TAF 2022/01/26 12:06 UTC NOAA

TAF DTTZ 261100Z 2612/2712 16006KT 9999 FEW030

Example: see airport list